Impacts METAR Board
IDs:

KFLL - Ft Lauderdale-Hollyw, FL, US

Updated at: 1500 UTC 21 May 2019
Potential Impact None Slight Moderate High
Time 21/03Z 21/04Z 21/05Z 21/06Z 21/07Z 21/08Z 21/09Z 21/10Z 21/11Z 21/12Z 21/13Z 21/14Z 21/15Z
Temp80 80 80 80 79 79 79 79 79 80 82 84 84
Dewpt69 69 68 69 69 70 70 70 69 69 69 68 68
Altim29.98 29.98 29.97 29.96 29.94 29.92 29.91 29.92 29.93 29.95 29.96 29.97 29.98
VIS10 10 10 10 10 10 10 10 10 10 10 10 10
CIG-- -- -- -- -- -- -- 33 -- -- 50 -- --
CoverFEWFEWFEWFEWFEWFEWFEWBKNSCTFEWBKNFEWFEW
FltCatVFRVFRVFRVFRVFRVFRVFRVFRVFRVFRVFRVFRVFR
WX--------------------------
WDir11011012011013013013014000150130120
WSpd10 11 10 9 8 6 6 6 0 4 5 8 7
WGst-- -- -- -- -- -- -- -- -- -- -- -- --
Raw hourly METARs
KFLL 210253Z 11010KT 10SM FEW026 27/21 A2998 RMK AO2 SLP152 T02670206 53010
KFLL 210353Z 11011KT 10SM FEW026 27/21 A2998 RMK AO2 SLP151 T02670206
KFLL 210453Z 12010KT 10SM FEW026 27/20 A2997 RMK AO2 SLP148 T02670200 403000228
KFLL 210553Z 11009KT 10SM FEW028 27/21 A2996 RMK AO2 SLP144 T02670206 10272 20267 58007
KFLL 210653Z 13008KT 10SM FEW027 26/21 A2994 RMK AO2 SLP138 T02610206
KFLL 210753Z 13006KT 10SM FEW028 26/21 A2992 RMK AO2 SLP132 T02610211
KFLL 210853Z 13006KT 10SM FEW026 26/21 A2991 RMK AO2 SLP129 T02610211 56016
KFLL 210953Z 14006KT 10SM SCT025 BKN033 26/21 A2992 RMK AO2 SLP131 T02610211
KFLL 211053Z 00000KT 10SM FEW027 SCT033 26/21 A2993 RMK AO2 SLP136 T02610206
KFLL 211153Z VRB04KT 10SM FEW027 27/21 A2995 RMK AO2 SLP142 T02670206 10272 20261 53013
KFLL 211253Z 15005KT 10SM SCT030 BKN050 28/21 A2996 RMK AO2 SLP146 T02780206
KFLL 211353Z COR 13008KT 10SM FEW030 29/20 A2997 RMK AO2 SLP148 T02890200
KFLL 211453Z 12007KT 10SM FEW030 29/20 A2998 RMK AO2 SLP151 T02890200 51009



Page loaded:  15:12 UTC  |   08:12 AM Pacific  |   09:12 AM Mountain  |   10:12 AM Central  |   11:12 AM Eastern

 

ADVISORIES

FORECASTS

FORECASTS

OBSERVATIONS

USER TOOLS

ABOUT US